This is the latest recevied weather packets stored in our database for station/object Winterlng. If no packets are shown the sender has not sent any weather packets the latest 1 day(s).
| Time | Temp. | Humidity | Pressure | Rain* | Wind** | Luminosity | Snow |
|---|---|---|---|---|---|---|---|
| 1836273905 | 16.11° C | 82% | 0 hPa | 0 mm | 0 m/s | - | - |
| 1778031131 | 7.78° C | 91% | 0 hPa | 1.52 mm | 0 m/s | - | - |
| 1778029332 | 8.33° C | 92% | 0 hPa | 1.52 mm | 0 m/s | - | - |
| 1778027529 | 8.33° C | 92% | 0 hPa | 1.52 mm | 0 m/s | - | - |
| 1778025729 | 8.33° C | 93% | 0 hPa | 1.52 mm | 0 m/s | - | - |
| 1778023929 | 7.78° C | 93% | 0 hPa | 1.52 mm | 0 m/s | - | - |
| 1778022129 | 8.33° C | 92% | 0 hPa | 1.52 mm | 0 m/s | - | - |
| 1778020330 | 8.89° C | 92% | 0 hPa | 1.52 mm | 0 m/s | - | - |
| 1778018529 | 9.44° C | 92% | 0 hPa | 0 mm | 0 m/s | - | - |
| 1778016731 | 9.44° C | 92% | 0 hPa | 1.52 mm | 0 m/s | - | - |
| 1778014935 | 10° C | 92% | 0 hPa | 1.52 mm | 0 m/s | - | - |
| 1778013129 | 10° C | 89% | 0 hPa | 1.52 mm | 0 m/s | - | - |
| 1778011330 | 10.56° C | 88% | 0 hPa | 1.52 mm | 0 m/s | - | - |
| 1778009529 | 10.56° C | 85% | 0 hPa | 1.52 mm | 0 m/s | - | - |
| 1778007735 | 11.11° C | 83% | 0 hPa | 1.52 mm | 0 m/s | - | - |
| 1778005932 | 11.67° C | 83% | 0 hPa | 1.52 mm | 0 m/s | - | - |
| 1778004131 | 12.22° C | 83% | 0 hPa | 1.52 mm | 0 m/s | - | - |
| 1778002330 | 13.33° C | 80% | 0 hPa | 1.27 mm | 0 m/s | - | - |
| 1778000530 | 14.44° C | 77% | 0 hPa | 1.27 mm | 0 m/s | - | - |
| 1777998731 | 14.44° C | 78% | 0 hPa | 1.27 mm | 0 m/s | - | - |
| 1777995130 | 15° C | 71% | 0 hPa | 1.27 mm | 0 m/s | - | - |
| 1777993336 | 14.44° C | 72% | 0 hPa | 1.27 mm | 0 m/s | - | - |
| 1777991532 | 13.89° C | 77% | 0 hPa | 1.27 mm | 0 m/s | - | - |
| 1777989730 | 13.33° C | 76% | 0 hPa | 1.27 mm | 0 m/s | - | - |
| 1777987930 | 12.78° C | 82% | 0 hPa | 1.27 mm | 0 m/s | - | - |
* Rain since midnight (hover to see other rain measurements)
** Current wind speed in m/s (hover to see current wind gust speed)